Terminal Aerodrome Forecast
Issued by NWS Jackson, MS

Current Version | Previous Version | Text Only | Print | Product List | Glossary On
Versions: 1 2 3 4 5 6 7 8 9 10 11 12 13 14 15 16
000
FTUS44 KJAN 251700
TAFMEI
TAF
KMEI 251721Z 2518/2618 22012KT P6SM SKC
     FM252000 24014G18KT P6SM SCT100 SCT250
     FM260000 27012KT P6SM FEW050 SCT100
     FM261600 31011KT P6SM SCT100=

USA.gov is the U.S. government's official web portal to all federal, state and local government web resources and services.